createdAt,value
2018-08-18T00:00:05.137Z,12.93
2018-08-18T00:02:39.500Z,13.00
2018-08-18T00:05:13.704Z,13.90
2018-08-18T00:07:47.759Z,14.13
2018-08-18T00:10:21.277Z,13.80
2018-08-18T00:12:50.224Z,13.30
2018-08-18T00:15:19.400Z,15.07
2018-08-18T00:17:48.258Z,14.20
2018-08-18T00:20:20.929Z,13.73
2018-08-18T00:22:49.710Z,14.87
2018-08-18T00:25:18.449Z,16.40
2018-08-18T00:27:47.235Z,14.13
2018-08-18T00:30:21.294Z,14.43
2018-08-18T00:32:50.018Z,15.97
2018-08-18T00:35:18.825Z,14.23
2018-08-18T00:37:47.637Z,12.43
2018-08-18T00:40:16.475Z,15.37
2018-08-18T00:42:45.287Z,15.57
2018-08-18T00:45:14.500Z,14.73
2018-08-18T00:47:43.247Z,15.70
2018-08-18T00:50:16.247Z,16.47
2018-08-18T00:52:45.408Z,16.27
2018-08-18T00:55:14.121Z,14.27
2018-08-18T00:57:42.831Z,14.63
2018-08-18T01:00:11.618Z,15.40
2018-08-18T01:02:40.333Z,14.70
2018-08-18T01:05:09.093Z,15.80
2018-08-18T01:07:37.929Z,18.40
2018-08-18T01:10:06.721Z,16.60
2018-08-18T01:12:37.995Z,17.10
2018-08-18T01:15:13.000Z,15.57
2018-08-18T01:17:45.958Z,16.33
2018-08-18T01:20:19.162Z,15.00
2018-08-18T01:23:00.530Z,18.23
2018-08-18T01:25:36.482Z,15.80
2018-08-18T01:28:10.334Z,16.23
2018-08-18T01:30:51.443Z,16.97
2018-08-18T01:33:24.725Z,17.60
2018-08-18T01:35:59.764Z,16.10
2018-08-18T01:38:33.555Z,17.70
2018-08-18T01:41:15.345Z,17.17
2018-08-18T01:43:51.642Z,17.67
2018-08-18T01:46:23.197Z,17.63
2018-08-18T01:48:56.960Z,19.80
2018-08-18T01:51:30.169Z,17.90
2018-08-18T01:54:03.092Z,17.30
2018-08-18T01:56:36.445Z,17.33
2018-08-18T01:59:12.603Z,19.47
2018-08-18T02:01:50.177Z,16.53
2018-08-18T02:04:23.433Z,19.60
2018-08-18T02:07:02.154Z,16.77
2018-08-18T02:09:37.211Z,18.20
2018-08-18T02:12:11.581Z,18.33
2018-08-18T02:14:47.632Z,18.77
2018-08-18T02:17:30.565Z,17.73
2018-08-18T02:20:04.738Z,17.97
2018-08-18T02:22:37.870Z,18.47
2018-08-18T02:25:10.973Z,18.53
2018-08-18T02:27:44.986Z,18.43
2018-08-18T02:30:24.054Z,17.10
2018-08-18T02:32:59.185Z,19.53
2018-08-18T02:35:33.208Z,20.57
2018-08-18T02:38:08.511Z,19.30
2018-08-18T02:40:45.318Z,21.43
2018-08-18T02:43:24.559Z,18.83
2018-08-18T02:45:59.366Z,19.00
2018-08-18T02:48:32.524Z,17.60
2018-08-18T02:51:06.325Z,19.73
2018-08-18T02:53:39.460Z,21.13
2018-08-18T02:56:13.613Z,18.10
2018-08-18T02:59:18.443Z,19.80
2018-08-18T03:01:52.945Z,18.93
2018-08-18T03:04:28.682Z,19.00
2018-08-18T03:07:01.842Z,20.03
2018-08-18T03:09:38.033Z,19.63
2018-08-18T03:12:09.439Z,18.40
2018-08-18T03:14:43.376Z,19.43
2018-08-18T03:17:14.537Z,20.47
2018-08-18T03:19:46.679Z,18.03
2018-08-18T03:22:19.525Z,17.93
2018-08-18T03:24:51.920Z,19.80
2018-08-18T03:27:24.812Z,20.73
2018-08-18T03:29:57.919Z,18.23
2018-08-18T03:32:30.563Z,18.10
2018-08-18T03:35:03.519Z,19.23
2018-08-18T03:37:36.836Z,18.13
2018-08-18T03:40:09.010Z,17.67
2018-08-18T03:42:44.055Z,18.37
2018-08-18T03:45:16.998Z,21.50
2018-08-18T03:47:50.155Z,17.90
2018-08-18T03:50:24.091Z,18.17
2018-08-18T03:52:57.746Z,18.50
2018-08-18T03:55:39.219Z,18.83
2018-08-18T03:58:11.979Z,18.50
2018-08-18T04:00:46.397Z,17.70
2018-08-18T04:03:19.978Z,19.73
2018-08-18T04:05:53.215Z,19.03
2018-08-18T04:08:27.618Z,18.87
2018-08-18T04:10:59.470Z,20.87
2018-08-18T04:13:32.195Z,19.40
2018-08-18T04:16:08.485Z,21.07
2018-08-18T04:18:40.837Z,19.00
2018-08-18T04:21:13.226Z,19.97
2018-08-18T04:23:45.734Z,20.47
2018-08-18T04:26:19.506Z,21.27
2018-08-18T04:28:51.800Z,20.20
2018-08-18T04:31:29.496Z,20.37
2018-08-18T04:34:02.520Z,19.17
2018-08-18T04:36:34.179Z,20.60
2018-08-18T04:39:09.978Z,22.47
2018-08-18T04:41:41.238Z,21.90
2018-08-18T04:44:15.107Z,20.77
2018-08-18T04:46:45.756Z,22.87
2018-08-18T04:49:16.830Z,23.87
2018-08-18T04:51:47.941Z,22.60
2018-08-18T04:54:20.378Z,19.40
2018-08-18T04:56:52.048Z,20.80
2018-08-18T04:59:25.256Z,20.80
2018-08-18T05:01:58.127Z,20.80
2018-08-18T05:04:30.746Z,20.03
2018-08-18T05:07:03.567Z,19.40
2018-08-18T05:09:36.047Z,19.23
2018-08-18T05:12:08.095Z,19.47
2018-08-18T05:14:40.610Z,21.73
2018-08-18T05:17:16.536Z,21.47
2018-08-18T05:19:55.206Z,20.77
2018-08-18T05:22:28.822Z,17.97
2018-08-18T05:25:02.089Z,19.70
2018-08-18T05:27:34.351Z,21.93
2018-08-18T05:30:08.062Z,20.23
2018-08-18T05:32:39.995Z,21.60
2018-08-18T05:35:13.470Z,20.63
2018-08-18T05:37:53.735Z,20.00
2018-08-18T05:40:26.301Z,23.43
2018-08-18T05:42:59.403Z,21.50
2018-08-18T05:45:33.272Z,23.40
2018-08-18T05:48:06.264Z,21.60
2018-08-18T05:50:40.116Z,21.70
2018-08-18T05:53:23.833Z,22.67
2018-08-18T05:55:56.694Z,21.20
2018-08-18T05:58:31.814Z,22.37
2018-08-18T06:01:08.452Z,24.07
2018-08-18T06:03:40.694Z,21.93
2018-08-18T06:06:12.251Z,20.53
2018-08-18T06:08:44.323Z,19.80
2018-08-18T06:11:13.057Z,23.47
2018-08-18T06:13:41.770Z,21.73
2018-08-18T06:16:12.021Z,20.33
2018-08-18T06:18:41.317Z,21.23
2018-08-18T06:21:10.044Z,19.93
2018-08-18T06:23:39.445Z,20.80
2018-08-18T06:26:08.462Z,21.33
2018-08-18T06:28:37.249Z,19.50
2018-08-18T06:31:06.060Z,21.27
2018-08-18T06:33:34.749Z,19.43
2018-08-18T06:36:04.223Z,21.50
2018-08-18T06:38:33.297Z,22.13
2018-08-18T06:41:03.031Z,22.47
2018-08-18T06:43:33.055Z,18.00
2018-08-18T06:46:02.116Z,20.80
2018-08-18T06:48:33.905Z,20.03
2018-08-18T06:51:02.825Z,22.77
2018-08-18T06:53:37.051Z,21.27
2018-08-18T06:56:06.081Z,20.90
2018-08-18T06:58:34.932Z,21.00
2018-08-18T07:01:03.928Z,18.50
2018-08-18T07:03:39.601Z,18.73
2018-08-18T07:06:10.277Z,20.47
2018-08-18T07:08:44.326Z,18.30
2018-08-18T07:11:13.092Z,18.73
2018-08-18T07:13:42.570Z,17.43
2018-08-18T07:16:11.501Z,17.43
2018-08-18T07:18:40.287Z,17.50
2018-08-18T07:21:09.064Z,18.80
2018-08-18T07:23:37.821Z,20.63
2018-08-18T07:26:07.041Z,19.20
2018-08-18T07:28:35.819Z,18.60
2018-08-18T07:31:04.516Z,16.23
2018-08-18T07:33:33.320Z,15.13
2018-08-18T07:36:02.276Z,17.63
2018-08-18T07:38:31.203Z,18.40
2018-08-18T07:40:59.958Z,16.20
2018-08-18T07:43:31.926Z,14.97
2018-08-18T07:46:02.262Z,13.33
2018-08-18T07:48:31.089Z,16.70
2018-08-18T07:50:59.837Z,14.73
2018-08-18T07:53:28.634Z,15.40
2018-08-18T07:55:57.428Z,18.37
2018-08-18T07:58:26.272Z,16.13
2018-08-18T08:00:57.629Z,15.97
2018-08-18T08:03:26.374Z,16.67
2018-08-18T08:05:55.126Z,16.80
2018-08-18T08:08:23.812Z,14.20
2018-08-18T08:10:58.005Z,14.40
2018-08-18T08:13:26.709Z,13.60
2018-08-18T08:15:55.510Z,14.03
2018-08-18T08:18:24.386Z,11.40
2018-08-18T08:20:53.117Z,15.13
2018-08-18T08:23:21.978Z,15.33
2018-08-18T08:25:50.759Z,14.57
2018-08-18T08:28:19.629Z,12.40
2018-08-18T08:30:48.291Z,13.53
2018-08-18T08:33:31.101Z,12.93
2018-08-18T08:35:59.786Z,12.97
2018-08-18T08:38:38.448Z,13.63
2018-08-18T08:41:09.770Z,13.20
2018-08-18T08:43:38.600Z,13.17
2018-08-18T08:46:07.456Z,14.40
2018-08-18T08:48:36.333Z,11.70
2018-08-18T08:51:05.282Z,12.13
2018-08-18T08:53:34.067Z,12.50
2018-08-18T08:56:02.821Z,10.77
2018-08-18T08:58:32.088Z,11.60
2018-08-18T09:01:00.773Z,13.20
2018-08-18T09:03:29.487Z,13.93
2018-08-18T09:05:58.149Z,14.53
2018-08-18T09:08:26.997Z,13.50
2018-08-18T09:10:55.721Z,11.43
2018-08-18T09:13:24.449Z,11.33
2018-08-18T09:15:53.271Z,13.23
2018-08-18T09:18:22.090Z,11.47
2018-08-18T09:20:50.877Z,12.30
2018-08-18T09:23:19.607Z,11.70
2018-08-18T09:25:48.431Z,12.03
2018-08-18T09:28:17.144Z,12.30
2018-08-18T09:30:46.768Z,14.70
2018-08-18T09:33:15.516Z,13.50
2018-08-18T09:35:55.717Z,12.97
2018-08-18T09:38:24.523Z,12.90
2018-08-18T09:40:53.318Z,13.10
2018-08-18T09:43:23.120Z,12.10
2018-08-18T09:45:52.800Z,12.57
2018-08-18T09:48:21.658Z,11.20
2018-08-18T09:50:50.425Z,9.20
2018-08-18T09:53:19.212Z,12.03
2018-08-18T09:55:47.996Z,11.63
2018-08-18T09:58:16.769Z,13.33
2018-08-18T10:00:45.551Z,12.67
2018-08-18T10:03:14.384Z,11.43
2018-08-18T10:05:43.132Z,12.77
2018-08-18T10:08:11.933Z,12.60
2018-08-18T10:10:40.638Z,12.17
2018-08-18T10:13:09.355Z,10.27
2018-08-18T10:15:38.101Z,10.27
2018-08-18T10:18:06.797Z,10.97
2018-08-18T10:20:39.688Z,12.07
2018-08-18T10:23:10.433Z,10.97
2018-08-18T10:25:39.177Z,11.30
2018-08-18T10:28:07.925Z,9.70
2018-08-18T10:30:36.707Z,13.47
2018-08-18T10:33:05.664Z,12.00
2018-08-18T10:35:34.454Z,12.57
2018-08-18T10:38:04.509Z,10.30
2018-08-18T10:40:33.250Z,10.20
2018-08-18T10:43:02.024Z,10.07
2018-08-18T10:45:30.781Z,9.90
2018-08-18T10:47:59.464Z,11.83
2018-08-18T10:51:38.827Z,8.67
2018-08-18T10:54:07.439Z,8.03
2018-08-18T10:56:36.206Z,9.03
2018-08-18T10:59:19.621Z,9.30
2018-08-18T11:02:03.937Z,7.53
2018-08-18T11:04:34.986Z,9.23
2018-08-18T11:07:04.214Z,8.07
2018-08-18T11:09:33.453Z,8.50
2018-08-18T11:12:02.934Z,7.00
2018-08-18T11:14:31.817Z,9.83
2018-08-18T11:17:00.628Z,10.03
2018-08-18T11:19:29.448Z,8.80
2018-08-18T11:22:09.251Z,8.10
2018-08-18T11:24:38.102Z,7.87
2018-08-18T11:27:06.832Z,9.30
2018-08-18T11:29:35.549Z,8.87
2018-08-18T11:32:05.342Z,7.83
2018-08-18T11:34:33.998Z,7.77
2018-08-18T11:37:06.126Z,8.87
2018-08-18T11:39:34.806Z,8.57
2018-08-18T11:42:03.504Z,8.20
2018-08-18T11:44:32.248Z,7.83
2018-08-18T11:47:01.255Z,7.87
2018-08-18T11:49:30.229Z,6.40
2018-08-18T11:51:58.944Z,6.63
2018-08-18T11:54:27.662Z,7.63
2018-08-18T11:56:56.342Z,6.83
2018-08-18T11:59:25.076Z,6.27
2018-08-18T12:01:55.480Z,6.50
2018-08-18T12:04:24.576Z,6.60
2018-08-18T12:06:58.445Z,7.10
2018-08-18T12:09:27.714Z,7.23
2018-08-18T12:11:56.482Z,7.50
2018-08-18T12:14:25.228Z,6.83
2018-08-18T12:16:53.976Z,6.40
2018-08-18T12:19:22.722Z,7.17
2018-08-18T12:21:51.542Z,8.50
2018-08-18T12:24:21.163Z,8.23
2018-08-18T12:27:01.328Z,7.50
2018-08-18T12:29:31.705Z,6.60
2018-08-18T12:32:00.425Z,7.37
2018-08-18T12:34:29.204Z,6.50
2018-08-18T12:36:58.030Z,6.97
2018-08-18T12:39:26.739Z,6.97
2018-08-18T12:41:55.469Z,6.70
2018-08-18T12:44:31.305Z,6.60
2018-08-18T12:47:02.752Z,5.60
2018-08-18T12:49:32.070Z,6.20
2018-08-18T12:52:00.843Z,7.03
2018-08-18T12:54:29.584Z,7.80
2018-08-18T12:56:58.304Z,6.97
2018-08-18T12:59:26.997Z,6.50
2018-08-18T13:01:55.741Z,7.53
2018-08-18T13:04:24.449Z,6.63
2018-08-18T13:06:54.368Z,5.90
2018-08-18T13:09:28.042Z,7.93
2018-08-18T13:11:58.327Z,6.00
2018-08-18T13:14:28.768Z,5.80
2018-08-18T13:16:57.523Z,6.10
2018-08-18T13:19:29.875Z,6.70
2018-08-18T13:21:58.635Z,6.70
2018-08-18T13:24:29.702Z,6.00
2018-08-18T13:26:59.877Z,5.73
2018-08-18T13:29:28.742Z,5.73
2018-08-18T13:31:57.628Z,5.83
2018-08-18T13:34:26.334Z,5.43
2018-08-18T13:36:55.100Z,6.00
2018-08-18T13:39:23.805Z,5.77
2018-08-18T13:41:52.557Z,5.93
2018-08-18T13:44:29.763Z,6.20
2018-08-18T13:46:58.578Z,6.60
2018-08-18T13:49:27.989Z,6.03
2018-08-18T13:51:56.804Z,6.37
2018-08-18T13:54:25.541Z,6.17
2018-08-18T13:56:54.317Z,5.83
2018-08-18T13:59:54.811Z,5.70
2018-08-18T14:02:23.537Z,6.07
2018-08-18T14:04:53.056Z,6.00
2018-08-18T14:07:21.802Z,5.77
2018-08-18T14:10:05.908Z,5.53
2018-08-18T14:12:34.703Z,5.80
2018-08-18T14:15:03.510Z,5.50
2018-08-18T14:17:32.349Z,6.80
2018-08-18T14:20:01.014Z,5.97
2018-08-18T14:22:29.748Z,5.80
2018-08-18T14:24:58.522Z,5.73
2018-08-18T14:27:27.229Z,5.80
2018-08-18T14:29:55.984Z,5.63
2018-08-18T14:32:27.656Z,5.80
2018-08-18T14:35:11.872Z,6.00
2018-08-18T14:37:42.081Z,5.20
2018-08-18T14:40:15.157Z,5.77
2018-08-18T14:42:44.155Z,6.10
2018-08-18T14:45:15.102Z,5.77
2018-08-18T14:47:44.086Z,6.40
2018-08-18T14:50:27.808Z,6.27
2018-08-18T14:52:56.663Z,6.10
2018-08-18T14:55:25.337Z,5.70
2018-08-18T14:58:01.418Z,6.87
2018-08-18T15:00:30.333Z,5.47
2018-08-18T15:02:59.080Z,5.50
2018-08-18T15:05:27.872Z,6.60
2018-08-18T15:07:57.486Z,6.57
2018-08-18T15:10:37.239Z,6.80
2018-08-18T15:13:06.820Z,5.90
2018-08-18T15:15:36.044Z,6.63
2018-08-18T15:18:06.220Z,6.70
2018-08-18T15:20:36.251Z,6.93
2018-08-18T15:23:06.066Z,6.90
2018-08-18T15:25:35.783Z,6.20
2018-08-18T15:28:05.930Z,6.40
2018-08-18T15:30:35.976Z,6.70
2018-08-18T15:33:04.881Z,7.00
2018-08-18T15:35:36.218Z,5.60
2018-08-18T15:38:05.836Z,5.77
2018-08-18T15:40:34.595Z,6.60
2018-08-18T15:43:03.633Z,7.27
2018-08-18T15:45:32.908Z,6.97
2018-08-18T15:48:03.478Z,6.10
2018-08-18T15:50:32.232Z,6.73
2018-08-18T15:53:00.929Z,6.60
2018-08-18T15:55:29.708Z,6.07
2018-08-18T15:57:58.443Z,6.37
2018-08-18T16:00:34.254Z,7.37
2018-08-18T16:03:03.113Z,5.77
2018-08-18T16:05:32.783Z,5.40
2018-08-18T16:08:01.493Z,6.03
2018-08-18T16:10:30.277Z,6.60
2018-08-18T16:12:58.971Z,6.60
2018-08-18T16:15:27.673Z,6.93
2018-08-18T16:17:56.435Z,6.73
2018-08-18T16:20:27.040Z,6.23
2018-08-18T16:22:57.097Z,6.00
2018-08-18T16:25:35.558Z,6.90
2018-08-18T16:28:05.166Z,5.67
2018-08-18T16:30:34.469Z,6.13
2018-08-18T16:33:14.665Z,5.97
2018-08-18T16:35:44.564Z,6.87
2018-08-18T16:38:13.326Z,6.13
2018-08-18T16:40:42.347Z,5.50
2018-08-18T16:43:13.401Z,5.97
2018-08-18T16:45:42.231Z,5.37
2018-08-18T16:48:12.522Z,5.97
2018-08-18T16:50:41.905Z,6.10
2018-08-18T16:53:11.849Z,5.40
2018-08-18T16:55:41.935Z,6.37
2018-08-18T16:58:10.704Z,5.40
2018-08-18T17:00:55.912Z,6.10
2018-08-18T17:03:31.491Z,5.40
2018-08-18T17:06:01.569Z,6.20
2018-08-18T17:08:30.721Z,6.20
2018-08-18T17:10:59.842Z,5.53
2018-08-18T17:13:31.215Z,6.33
2018-08-18T17:15:59.978Z,6.73
2018-08-18T17:18:28.703Z,6.27
2018-08-18T17:21:01.688Z,6.07
2018-08-18T17:23:32.028Z,5.30
2018-08-18T17:26:00.894Z,6.10
2018-08-18T17:28:30.395Z,5.57
2018-08-18T17:31:01.100Z,5.30
2018-08-18T17:33:29.926Z,5.90
2018-08-18T17:35:58.635Z,5.90
2018-08-18T17:38:27.309Z,5.77
2018-08-18T17:40:56.066Z,6.17
2018-08-18T17:43:24.877Z,6.20
2018-08-18T17:46:03.043Z,5.70
2018-08-18T17:48:38.534Z,5.90
2018-08-18T17:51:07.293Z,5.97
2018-08-18T17:53:36.269Z,5.50
2018-08-18T17:56:05.028Z,5.30
2018-08-18T17:58:33.757Z,6.00
2018-08-18T18:01:02.613Z,5.50
2018-08-18T18:03:31.619Z,6.40
2018-08-18T18:06:00.390Z,5.00
2018-08-18T18:08:29.113Z,5.83
2018-08-18T18:10:58.061Z,6.57
2018-08-18T18:13:28.788Z,6.00
2018-08-18T18:15:57.510Z,6.30
2018-08-18T18:18:46.398Z,6.50
2018-08-18T18:21:15.249Z,6.13
2018-08-18T18:23:43.974Z,6.80
2018-08-18T18:26:12.735Z,6.30
2018-08-18T18:28:41.525Z,6.70
2018-08-18T18:31:10.357Z,6.97
2018-08-18T18:33:39.227Z,6.37
2018-08-18T18:36:08.023Z,6.60
2018-08-18T18:38:57.843Z,6.60
2018-08-18T18:41:26.836Z,6.60
2018-08-18T18:43:59.948Z,7.13
2018-08-18T18:46:28.677Z,6.30
2018-08-18T18:48:57.853Z,6.53
2018-08-18T18:51:26.818Z,6.17
2018-08-18T18:53:57.518Z,5.53
2018-08-18T18:56:26.268Z,6.80
2018-08-18T18:58:55.068Z,6.10
2018-08-18T19:01:30.947Z,6.40
2018-08-18T19:03:59.743Z,6.77
2018-08-18T19:06:28.537Z,6.40
2018-08-18T19:09:00.388Z,6.03
2018-08-18T19:11:29.198Z,6.90
2018-08-18T19:13:58.300Z,7.10
2018-08-18T19:16:27.303Z,6.67
2018-08-18T19:18:56.140Z,5.93
2018-08-18T19:21:30.043Z,6.87
2018-08-18T19:23:58.856Z,7.43
2018-08-18T19:26:36.416Z,6.93
2018-08-18T19:29:05.211Z,6.70
2018-08-18T19:31:35.468Z,6.73
2018-08-18T19:34:10.680Z,6.43
2018-08-18T19:36:53.434Z,6.40
2018-08-18T19:39:23.443Z,8.00
2018-08-18T19:41:52.209Z,7.50
2018-08-18T19:44:20.928Z,6.83
2018-08-18T19:46:49.698Z,7.60
2018-08-18T19:49:29.543Z,7.70
2018-08-18T19:52:02.470Z,7.13
2018-08-18T19:54:31.134Z,6.80
2018-08-18T19:56:59.853Z,7.40
2018-08-18T19:59:28.581Z,7.10
2018-08-18T20:01:57.364Z,7.80
2018-08-18T20:04:31.645Z,7.40
2018-08-18T20:07:00.358Z,7.87
2018-08-18T20:09:29.087Z,7.70
2018-08-18T20:11:58.058Z,7.77
2018-08-18T20:14:26.806Z,7.07
2018-08-18T20:16:55.848Z,8.00
2018-08-18T20:19:24.600Z,6.37
2018-08-18T20:21:53.384Z,7.80
2018-08-18T20:24:22.066Z,7.57
2018-08-18T20:26:50.761Z,7.30
2018-08-18T20:29:19.492Z,7.70
2018-08-18T20:31:59.224Z,6.70
2018-08-18T20:34:28.305Z,7.70
2018-08-18T20:36:57.136Z,8.00
2018-08-18T20:39:28.199Z,7.67
2018-08-18T20:41:57.388Z,7.70
2018-08-18T20:44:29.250Z,8.47
2018-08-18T20:46:58.331Z,8.10
2018-08-18T20:49:27.143Z,8.10
2018-08-18T20:51:55.877Z,7.80
2018-08-18T20:54:24.687Z,7.00
2018-08-18T20:56:53.423Z,7.87
2018-08-18T20:59:22.147Z,8.00
2018-08-18T21:01:50.902Z,7.20
2018-08-18T21:04:19.668Z,8.07
2018-08-18T21:06:48.471Z,8.70
2018-08-18T21:09:28.070Z,7.90
2018-08-18T21:11:56.772Z,7.20
2018-08-18T21:14:29.104Z,8.40
2018-08-18T21:16:57.954Z,8.70
2018-08-18T21:19:27.434Z,8.93
2018-08-18T21:21:56.725Z,7.70
2018-08-18T21:24:25.463Z,9.00
2018-08-18T21:26:54.152Z,8.70
2018-08-18T21:29:23.925Z,8.47
2018-08-18T21:31:52.667Z,8.13
2018-08-18T21:34:21.419Z,7.60
2018-08-18T21:36:50.139Z,9.57
2018-08-18T21:39:18.880Z,8.50
2018-08-18T21:41:48.531Z,8.93
2018-08-18T21:44:17.296Z,7.63
2018-08-18T21:46:46.089Z,7.70
2018-08-18T21:49:14.910Z,8.80
2018-08-18T21:51:43.634Z,8.30
2018-08-18T21:54:12.333Z,8.63
2018-08-18T21:56:42.359Z,8.70
2018-08-18T21:59:12.390Z,9.47
2018-08-18T22:01:41.160Z,9.77
2018-08-18T22:04:10.097Z,8.23
2018-08-18T22:06:39.044Z,7.23
2018-08-18T22:09:20.855Z,8.30
2018-08-18T22:11:49.619Z,8.80
2018-08-18T22:14:18.989Z,9.43
2018-08-18T22:16:52.977Z,7.17
2018-08-18T22:19:22.059Z,8.97
2018-08-18T22:21:50.810Z,8.43
2018-08-18T22:24:19.529Z,8.20
2018-08-18T22:26:48.319Z,8.37
2018-08-18T22:29:17.106Z,8.60
2018-08-18T22:31:45.866Z,9.27
2018-08-18T22:34:14.631Z,8.57
2018-08-18T22:36:43.430Z,9.10
2018-08-18T22:39:12.200Z,8.63
2018-08-18T22:41:42.673Z,8.30
2018-08-18T22:44:11.425Z,9.23
2018-08-18T22:46:40.142Z,8.07
2018-08-18T22:49:08.904Z,8.17
2018-08-18T22:51:37.670Z,7.77
2018-08-18T22:54:06.454Z,8.70
2018-08-18T22:56:37.137Z,8.60
2018-08-18T22:59:07.686Z,7.90
2018-08-18T23:01:37.721Z,7.57
2018-08-18T23:04:24.255Z,7.77
2018-08-18T23:06:53.069Z,7.50
2018-08-18T23:09:21.861Z,7.80
2018-08-18T23:11:50.561Z,7.50
2018-08-18T23:14:19.333Z,8.70
2018-08-18T23:16:48.067Z,7.77
2018-08-18T23:19:16.828Z,8.03
2018-08-18T23:21:45.568Z,7.93
2018-08-18T23:24:28.264Z,7.77
2018-08-18T23:26:57.018Z,8.03
2018-08-18T23:29:25.734Z,7.40
2018-08-18T23:31:54.454Z,8.40
2018-08-18T23:34:23.448Z,7.20
2018-08-18T23:36:52.614Z,7.50
2018-08-18T23:39:21.368Z,8.87
2018-08-18T23:41:58.424Z,7.07
2018-08-18T23:44:27.121Z,7.43
2018-08-18T23:46:55.892Z,7.97
2018-08-18T23:49:24.568Z,8.00
2018-08-18T23:51:53.370Z,7.83
2018-08-18T23:54:24.271Z,7.70
2018-08-18T23:56:53.303Z,8.03
2018-08-18T23:59:22.703Z,9.03
